Time;durP1;ratioP1;P1;durP2;ratioP2;P2;SDS_P1;SDS_P2;PMS_P1;PMS_P2;Temp;Humidity;BMP_temperature;BMP_pressure;BME280_temperature;BME280_humidity;BME280_pressure;Samples;Min_cycle;Max_cycle;Signal;HPM_P1;HPM_P2
2022/03/17 00:01:24;;;;;;;74.13;33.10;;;;;;;6.65;79.44;101009.63;5038913;28;20124;-69
2022/03/17 00:03:49;;;;;;;75.85;31.35;;;;;;;6.64;79.60;101005.31;5048802;28;20540;-69
2022/03/17 00:06:14;;;;;;;80.07;33.58;;;;;;;6.61;79.66;101008.88;5048884;28;20028;-69
2022/03/17 00:08:40;;;;;;;71.00;33.42;;;;;;;6.58;79.62;101002.94;5045930;28;20048;-69
2022/03/17 00:11:06;;;;;;;79.45;35.35;;;;;;;6.55;79.72;100998.69;5046218;28;20029;-67
2022/03/17 00:13:31;;;;;;;77.35;33.45;;;;;;;6.52;79.59;100999.66;5047268;28;20040;-69
2022/03/17 00:15:57;;;;;;;86.55;34.55;;;;;;;6.51;79.93;101000.56;5044994;28;20459;-71
2022/03/17 00:18:22;;;;;;;86.03;35.25;;;;;;;6.49;80.15;100993.72;5043853;28;20525;-69
2022/03/17 00:20:47;;;;;;;82.55;33.20;;;;;;;6.46;80.09;100999.91;5047824;28;20040;-70
2022/03/17 00:23:13;;;;;;;80.53;35.10;;;;;;;6.40;80.32;101002.72;5048923;28;20458;-69
2022/03/17 00:25:38;;;;;;;82.82;34.97;;;;;;;6.39;80.43;101000.19;5049573;28;20033;-70
2022/03/17 00:28:04;;;;;;;77.95;34.38;;;;;;;6.37;80.63;100997.63;5049589;28;20040;-71
2022/03/17 00:30:29;;;;;;;80.93;34.10;;;;;;;6.36;80.68;100995.94;5048692;28;20586;-69
2022/03/17 00:32:55;;;;;;;83.93;36.65;;;;;;;6.35;80.30;101002.06;5048667;28;20037;-68
2022/03/17 00:35:35;;;;;;;86.55;38.03;;;;;;;6.32;80.36;101001.34;5049038;28;20135;-69
2022/03/17 00:38:08;;;;;;;82.55;35.55;;;;;;;6.29;80.44;101003.13;5047500;28;20067;-69
2022/03/17 00:40:35;;;;;;;82.53;35.55;;;;;;;6.26;80.63;101008.44;5048867;28;20033;-69
2022/03/17 00:43:02;;;;;;;88.20;37.72;;;;;;;6.23;81.19;100997.28;5047814;28;20033;-69
2022/03/17 00:45:28;;;;;;;96.65;39.65;;;;;;;6.22;81.02;100998.22;5047982;28;20039;-67
2022/03/17 00:47:53;;;;;;;87.25;36.13;;;;;;;6.25;80.74;100987.69;5048881;28;20036;-70
2022/03/17 00:50:19;;;;;;;83.57;33.55;;;;;;;6.24;81.25;100991.22;5049133;28;20033;-68
2022/03/17 00:52:44;;;;;;;80.18;35.33;;;;;;;6.22;80.72;100990.41;5048576;28;20036;-69
2022/03/17 00:55:09;;;;;;;84.80;36.20;;;;;;;6.18;81.30;100991.44;5049299;28;20403;-68
2022/03/17 00:57:36;;;;;;;95.35;37.75;;;;;;;6.15;81.83;100988.94;5048570;28;20036;-68
2022/03/17 01:00:05;;;;;;;81.97;37.85;;;;;;;6.12;81.67;100987.31;5049090;28;20041;-70
2022/03/17 01:02:31;;;;;;;92.70;35.10;;;;;;;6.12;81.75;100991.63;5048751;28;20052;-69
2022/03/17 01:04:56;;;;;;;87.07;36.70;;;;;;;6.10;81.63;100988.25;5048454;28;20052;-68
2022/03/17 01:07:22;;;;;;;80.53;35.33;;;;;;;6.07;81.98;100987.47;5047555;28;20033;-68
2022/03/17 01:09:47;;;;;;;86.47;39.17;;;;;;;6.12;81.57;100984.72;5048625;28;20025;-70
2022/03/17 01:12:13;;;;;;;90.25;40.30;;;;;;;6.08;81.55;100988.31;5047833;28;20033;-70
2022/03/17 01:14:38;;;;;;;86.40;37.78;;;;;;;6.10;81.73;100988.25;5043700;28;20060;-69
2022/03/17 01:17:04;;;;;;;92.20;39.33;;;;;;;6.07;81.86;100981.41;5045344;28;20039;-70
2022/03/17 01:19:29;;;;;;;99.85;39.85;;;;;;;6.07;82.14;100984.00;5047630;28;20017;-70
2022/03/17 01:21:54;;;;;;;90.43;37.13;;;;;;;6.06;81.71;100983.16;5048650;28;20096;-69
2022/03/17 01:24:20;;;;;;;83.97;38.35;;;;;;;6.01;82.39;100981.66;5047746;28;20086;-70
2022/03/17 01:26:46;;;;;;;86.50;36.60;;;;;;;5.99;82.04;100981.69;5048202;28;20120;-69
2022/03/17 01:29:12;;;;;;;96.82;39.28;;;;;;;5.98;82.53;100974.78;5047916;28;20124;-69
2022/03/17 01:31:38;;;;;;;91.57;39.75;;;;;;;5.98;82.28;100972.19;5047930;28;20064;-69
2022/03/17 01:34:03;;;;;;;94.75;38.92;;;;;;;5.98;82.48;100968.75;5047937;28;20052;-69
2022/03/17 01:36:29;;;;;;;105.63;41.85;;;;;;;5.99;82.37;100973.03;5047974;28;20060;-69
2022/03/17 01:38:54;;;;;;;94.38;40.28;;;;;;;6.01;81.95;100973.84;5047357;28;20595;-70
2022/03/17 01:41:20;;;;;;;91.03;39.63;;;;;;;6.00;82.05;100965.16;5046884;28;20499;-70
2022/03/17 01:43:45;;;;;;;98.68;41.13;;;;;;;6.01;81.89;100961.66;5051321;28;20443;-68
2022/03/17 01:46:14;;;;;;;88.20;38.85;;;;;;;6.04;81.88;100963.28;5051878;28;20033;-70
2022/03/17 01:48:40;;;;;;;90.45;39.65;;;;;;;6.06;81.40;100964.94;5051952;28;20116;-69
2022/03/17 01:51:05;;;;;;;95.57;40.63;;;;;;;6.07;81.29;100965.78;5051450;28;20620;-69
2022/03/17 01:53:31;;;;;;;102.95;41.58;;;;;;;6.06;81.22;100961.50;5050003;28;20064;-70
2022/03/17 01:55:58;;;;;;;104.80;42.00;;;;;;;6.08;81.30;100964.88;5051759;28;20032;-68
2022/03/17 01:58:24;;;;;;;94.45;41.40;;;;;;;6.12;81.19;100961.28;5050823;28;20056;-69
2022/03/17 02:00:50;;;;;;;103.07;40.90;;;;;;;6.12;81.01;100958.66;5052341;28;20051;-70
2022/03/17 02:03:15;;;;;;;103.55;42.33;;;;;;;6.11;80.91;100958.72;5050740;28;20029;-70
2022/03/17 02:05:43;;;;;;;99.43;43.63;;;;;;;6.14;80.88;100958.59;5051169;28;20037;-70
2022/03/17 02:08:10;;;;;;;102.32;43.90;;;;;;;6.16;80.74;100951.59;5050345;28;20025;-69
2022/03/17 02:13:20;;;;;;;110.25;43.47;;;;;;;6.15;80.59;100944.66;5050333;28;20124;-70
2022/03/17 02:15:50;;;;;;;103.25;43.50;;;;;;;6.12;80.73;100947.38;5051840;28;20099;-70
2022/03/17 02:18:16;;;;;;;101.93;40.08;;;;;;;6.11;80.44;100948.28;5056784;28;20057;-70
2022/03/17 02:20:42;;;;;;;110.88;44.78;;;;;;;6.14;80.43;100950.78;5049485;28;20072;-70
2022/03/17 02:26:04;;;;;;;106.57;43.03;;;;;;;6.12;80.55;100956.06;5051311;28;20048;-69
2022/03/17 02:28:31;;;;;;;101.88;43.22;;;;;;;6.07;80.63;100956.22;5044534;28;20379;-68
2022/03/17 02:30:57;;;;;;;108.88;45.55;;;;;;;6.01;80.96;100951.25;5050948;28;20021;-69
2022/03/17 02:33:23;;;;;;;101.53;43.92;;;;;;;6.00;80.81;100957.34;5050245;28;20033;-68
2022/03/17 02:35:49;;;;;;;101.55;41.30;;;;;;;5.96;81.48;100963.56;5050841;28;20037;-70
2022/03/17 02:38:16;;;;;;;102.80;43.80;;;;;;;5.96;80.87;100958.38;5050751;28;20053;-71
2022/03/17 02:40:44;;;;;;;112.45;45.55;;;;;;;5.97;80.91;100960.09;5050662;28;20588;-70
2022/03/17 02:43:11;;;;;;;109.20;45.60;;;;;;;6.00;80.71;100952.13;5050757;28;20043;-69
2022/03/17 02:45:37;;;;;;;114.22;45.58;;;;;;;6.01;80.54;100946.06;5050759;28;20044;-70
2022/03/17 02:48:04;;;;;;;118.97;46.28;;;;;;;6.02;80.59;100946.91;5050585;28;20037;-69
2022/03/17 02:50:30;;;;;;;110.25;45.78;;;;;;;6.00;80.73;100948.69;5050552;28;20098;-69
2022/03/17 02:52:56;;;;;;;118.25;47.47;;;;;;;5.95;80.73;100943.66;5049216;28;20565;-70
2022/03/17 02:55:21;;;;;;;111.75;46.00;;;;;;;5.93;80.73;100937.69;5049940;28;20025;-69
2022/03/17 02:57:48;;;;;;;114.05;46.40;;;;;;;5.93;80.51;100929.88;5050867;28;20423;-69
2022/03/17 03:00:14;;;;;;;111.05;47.05;;;;;;;5.92;80.43;100938.56;5050632;28;20029;-69
2022/03/17 03:02:40;;;;;;;119.82;47.15;;;;;;;5.92;80.64;100941.16;5052623;28;20036;-68
2022/03/17 03:05:06;;;;;;;126.25;49.63;;;;;;;5.91;80.55;100933.41;5051396;28;20749;-69
2022/03/17 03:07:32;;;;;;;119.63;48.22;;;;;;;5.89;80.08;100936.03;5050544;28;20087;-71
2022/03/17 03:09:58;;;;;;;117.97;48.10;;;;;;;5.89;80.22;100946.44;5050252;28;20625;-69
2022/03/17 03:12:23;;;;;;;113.55;45.88;;;;;;;5.86;80.44;100949.19;5051383;28;20068;-67
2022/03/17 03:14:49;;;;;;;114.95;46.83;;;;;;;5.83;80.80;100938.88;5044891;28;20124;-68
2022/03/17 03:17:15;;;;;;;123.88;48.03;;;;;;;5.82;80.54;100947.59;5049617;28;20041;-69
2022/03/17 03:19:41;;;;;;;114.00;45.53;;;;;;;5.81;80.73;100948.50;5049689;28;20036;-69
2022/03/17 03:22:06;;;;;;;127.22;48.85;;;;;;;5.81;80.70;100943.28;5050070;28;20552;-69
2022/03/17 03:24:33;;;;;;;117.00;48.25;;;;;;;5.77;80.82;100936.50;5049438;28;20052;-68
2022/03/17 03:26:59;;;;;;;118.45;48.53;;;;;;;5.77;81.20;100949.50;5049545;28;20040;-69
2022/03/17 03:29:27;;;;;;;114.25;47.72;;;;;;;5.77;81.17;100942.56;5049749;28;20071;-69
2022/03/17 03:31:56;;;;;;;111.03;47.35;;;;;;;5.74;80.96;100940.06;5049673;28;20108;-69
2022/03/17 03:34:22;;;;;;;;;;;;;;;5.72;80.82;100943.63;5049736;28;20028;-69
2022/03/17 03:39:33;;;;;;;121.50;48.90;;;;;;;5.83;79.94;100954.50;5049216;28;20076;-68
2022/03/17 03:41:58;;;;;;;118.68;48.22;;;;;;;5.89;79.45;100954.25;5049358;28;20041;-68
2022/03/17 03:44:23;;;;;;;121.63;50.95;;;;;;;5.89;79.71;100950.81;5048707;28;20300;-68
2022/03/17 03:46:49;;;;;;;121.65;46.08;;;;;;;5.88;79.47;100944.75;5047808;28;20040;-68
2022/03/17 03:49:14;;;;;;;118.03;47.72;;;;;;;5.88;79.46;100949.97;5049495;28;20029;-68
2022/03/17 03:51:39;;;;;;;115.30;48.42;;;;;;;5.88;79.52;100946.53;5049110;28;20037;-68
2022/03/17 03:54:15;;;;;;;122.32;49.88;;;;;;;5.91;79.78;100944.66;5049040;28;20033;-68
2022/03/17 03:56:50;;;;;;;121.18;48.30;;;;;;;5.88;79.42;100947.38;5049363;28;20077;-68
2022/03/17 03:59:21;;;;;;;122.75;49.80;;;;;;;5.85;79.80;100944.03;5048812;28;20026;-68
2022/03/17 04:01:52;;;;;;;119.95;48.97;;;;;;;5.80;79.90;100955.47;5048503;28;20055;-68
2022/03/17 04:04:19;;;;;;;132.82;50.50;;;;;;;5.78;80.05;100951.19;5047885;28;20044;-68
2022/03/17 04:06:47;;;;;;;132.77;50.53;;;;;;;5.75;79.98;100948.75;5049092;28;20029;-69
2022/03/17 04:09:20;;;;;;;122.75;48.47;;;;;;;5.72;80.50;100962.69;5048590;28;20033;-69
2022/03/17 04:11:46;;;;;;;116.80;47.60;;;;;;;5.68;80.73;100952.47;5049070;28;20025;-68
2022/03/17 04:14:13;;;;;;;132.57;51.38;;;;;;;5.62;81.23;100961.31;5048215;28;20051;-69
2022/03/17 04:16:39;;;;;;;125.05;50.20;;;;;;;5.56;81.35;100962.41;5048711;28;20495;-68
2022/03/17 04:19:04;;;;;;;125.47;49.05;;;;;;;5.51;81.50;100960.84;5047517;28;20122;-69
2022/03/17 04:21:31;;;;;;;115.15;49.38;;;;;;;5.48;81.78;100959.19;5049144;28;20061;-66
2022/03/17 04:23:57;;;;;;;133.77;53.42;;;;;;;5.50;81.48;100961.75;5048660;28;20212;-68
2022/03/17 04:26:23;;;;;;;127.40;49.63;;;;;;;5.54;81.10;100961.59;5045247;28;20478;-68
2022/03/17 04:28:48;;;;;;;125.63;51.22;;;;;;;5.56;80.79;100966.72;5048633;28;20729;-68
2022/03/17 04:31:14;;;;;;;127.50;48.55;;;;;;;5.54;81.06;100968.56;5048834;28;20043;-69
2022/03/17 04:33:39;;;;;;;134.55;52.10;;;;;;;5.53;81.23;100970.31;5047800;28;20069;-68
2022/03/17 04:36:05;;;;;;;116.07;48.20;;;;;;;5.53;81.08;100959.06;5030444;28;20056;-68
2022/03/17 04:38:31;;;;;;;123.90;50.20;;;;;;;5.52;81.12;100963.38;5050004;28;20072;-70
2022/03/17 04:40:57;;;;;;;125.63;48.83;;;;;;;5.48;81.44;100960.94;5048925;28;20049;-69
2022/03/17 04:43:23;;;;;;;119.07;50.05;;;;;;;5.50;81.00;100960.00;5047951;28;20037;-68
2022/03/17 04:45:48;;;;;;;130.18;50.78;;;;;;;5.48;81.23;100972.19;5049112;28;20029;-68
2022/03/17 04:48:14;;;;;;;131.63;50.80;;;;;;;5.45;81.27;100963.66;5048340;28;20576;-70
2022/03/17 04:50:40;;;;;;;119.00;49.33;;;;;;;5.46;81.55;100967.97;5048289;28;20127;-69
2022/03/17 04:55:50;;;;;;;135.80;51.75;;;;;;;5.44;81.29;100961.97;5048168;28;20086;-70
2022/03/17 04:58:15;;;;;;;122.38;50.55;;;;;;;5.42;81.61;100964.63;5048335;28;20529;-70
2022/03/17 05:00:41;;;;;;;127.75;50.30;;;;;;;5.39;81.47;100962.13;5048563;28;20025;-71
2022/03/17 05:03:08;;;;;;;128.65;50.92;;;;;;;5.37;81.21;100961.31;5046225;28;20445;-69
2022/03/17 05:05:33;;;;;;;138.88;52.45;;;;;;;5.39;81.37;100963.88;5048752;28;20554;-69
2022/03/17 05:07:58;;;;;;;118.63;50.35;;;;;;;5.43;81.14;100955.06;5046240;28;20136;-70
2022/03/17 05:10:23;;;;;;;142.57;52.35;;;;;;;5.43;81.08;100966.31;5048121;28;20703;-69
2022/03/17 05:12:49;;;;;;;132.55;50.53;;;;;;;5.46;80.92;100961.03;5048312;28;20094;-69
2022/03/17 05:15:14;;;;;;;123.05;49.33;;;;;;;5.43;80.88;100963.72;5042871;28;20033;-70
2022/03/17 05:17:40;;;;;;;124.55;50.92;;;;;;;5.44;80.69;100970.63;5050374;28;20044;-69
2022/03/17 05:20:09;;;;;;;120.30;48.80;;;;;;;5.43;80.80;100983.69;5049899;28;20044;-69
2022/03/17 05:22:34;;;;;;;124.95;49.90;;;;;;;5.43;80.93;100979.31;5049476;28;20660;-70
2022/03/17 05:25:00;;;;;;;134.10;50.92;;;;;;;5.46;80.86;100974.03;5042556;28;20013;-70
2022/03/17 05:27:25;;;;;;;127.85;50.85;;;;;;;5.50;80.23;100967.81;5048073;28;20144;-69
2022/03/17 05:29:51;;;;;;;120.07;50.15;;;;;;;5.52;80.32;100967.75;5054094;28;20037;-67
2022/03/17 05:32:16;;;;;;;120.03;49.88;;;;;;;5.52;80.36;100967.75;5054748;28;20115;-70
2022/03/17 05:34:42;;;;;;;125.30;52.42;;;;;;;5.53;79.89;100978.13;5051087;28;20528;-69
2022/03/17 05:37:07;;;;;;;135.90;51.95;;;;;;;5.58;79.70;100970.13;5051903;28;20048;-70
2022/03/17 05:39:32;;;;;;;129.13;52.25;;;;;;;5.61;79.46;100979.59;5051533;28;20037;-68
2022/03/17 05:41:57;;;;;;;126.22;51.20;;;;;;;5.61;79.37;100975.25;5051163;28;20036;-69
2022/03/17 05:44:23;;;;;;;137.15;53.30;;;;;;;5.66;79.06;100981.13;5051418;28;20499;-68
2022/03/17 05:46:48;;;;;;;127.18;53.40;;;;;;;5.71;79.06;100978.34;5048847;28;20037;-70
2022/03/17 05:49:14;;;;;;;123.43;50.95;;;;;;;5.75;78.68;100982.56;5045431;28;20052;-68
2022/03/17 05:51:39;;;;;;;132.27;51.50;;;;;;;5.76;78.97;100977.28;5051093;28;20025;-68
2022/03/17 05:54:06;;;;;;;127.32;52.60;;;;;;;5.76;78.62;100977.28;5048874;28;20037;-67
2022/03/17 05:56:31;;;;;;;133.82;52.13;;;;;;;5.79;79.11;100978.94;5051050;28;20398;-68
2022/03/17 05:58:56;;;;;;;127.68;48.88;;;;;;;5.84;78.57;100982.22;5047332;28;20493;-68
2022/03/17 06:01:22;;;;;;;129.88;52.47;;;;;;;5.91;78.80;100994.09;5046582;28;20021;-68
2022/03/17 06:03:47;;;;;;;122.65;50.95;;;;;;;5.93;78.11;100987.16;5048974;28;20033;-68
2022/03/17 06:06:12;;;;;;;127.90;50.42;;;;;;;5.98;78.19;100981.75;5044283;28;20139;-69
2022/03/17 06:08:38;;;;;;;135.55;52.88;;;;;;;6.02;78.43;100992.00;5050986;28;20120;-67
2022/03/17 06:11:06;;;;;;;133.48;52.33;;;;;;;6.14;78.70;100993.28;5047783;28;20041;-69
2022/03/17 06:13:32;;;;;;;133.07;52.22;;;;;;;6.22;78.50;100987.78;5050906;28;20032;-66
2022/03/17 06:15:57;;;;;;;128.38;50.88;;;;;;;6.28;77.59;100987.56;5052282;28;20017;-70
2022/03/17 06:18:22;;;;;;;140.68;52.35;;;;;;;6.35;77.29;100998.63;5056533;28;20491;-67
2022/03/17 06:20:48;;;;;;;132.90;52.53;;;;;;;6.38;76.61;101009.78;5051445;28;20029;-67
2022/03/17 06:23:13;;;;;;;137.05;53.35;;;;;;;6.45;76.68;100999.94;5057872;28;20037;-68
2022/03/17 06:25:38;;;;;;;130.55;51.05;;;;;;;6.51;76.55;101010.97;5051499;28;20406;-68
2022/03/17 06:28:05;;;;;;;130.35;50.83;;;;;;;6.57;76.36;101009.06;5050801;28;20138;-69
2022/03/17 06:30:31;;;;;;;157.93;54.42;;;;;;;6.59;75.69;101010.69;5051019;28;20395;-68
2022/03/17 06:32:57;;;;;;;137.75;53.65;;;;;;;6.64;75.87;101010.53;5050175;28;20048;-67
2022/03/17 06:35:25;;;;;;;134.23;53.65;;;;;;;6.64;75.83;101013.97;5047850;28;20037;-67
2022/03/17 06:37:53;;;;;;;156.75;54.67;;;;;;;6.69;75.09;101013.78;5040010;28;20048;-68
2022/03/17 06:40:19;;;;;;;137.10;55.73;;;;;;;6.72;75.37;101017.13;5048226;28;20490;-68
2022/03/17 06:42:46;;;;;;;123.43;50.97;;;;;;;6.78;75.24;101023.84;5045375;28;20091;-69
2022/03/17 06:45:12;;;;;;;126.03;51.15;;;;;;;6.82;74.99;101027.19;5049335;28;20447;-69
2022/03/17 06:47:38;;;;;;;132.57;49.60;;;;;;;6.87;74.89;101027.88;5047713;28;20572;-68
2022/03/17 06:50:05;;;;;;;139.13;52.33;;;;;;;6.86;74.12;101033.97;5053574;28;20041;-68
2022/03/17 06:52:30;;;;;;;122.25;50.50;;;;;;;6.89;74.10;101032.09;5043620;28;20056;-68
2022/03/17 06:54:56;;;;;;;137.65;53.17;;;;;;;6.86;74.40;101037.44;5044159;28;20064;-69
2022/03/17 06:57:22;;;;;;;142.70;51.80;;;;;;;6.84;74.83;101038.41;5044302;28;20067;-67
2022/03/17 06:59:48;;;;;;;140.40;53.00;;;;;;;6.84;74.62;101039.25;5042778;28;20045;-68
2022/03/17 07:02:14;;;;;;;139.63;52.78;;;;;;;6.83;74.72;101042.78;5043138;28;20041;-69
2022/03/17 07:04:40;;;;;;;125.03;51.03;;;;;;;6.82;74.98;101038.44;5042808;28;20052;-67
2022/03/17 07:07:06;;;;;;;144.10;52.67;;;;;;;6.79;75.30;101036.84;5043687;28;20463;-68
2022/03/17 07:09:31;;;;;;;139.05;54.70;;;;;;;6.84;75.26;101044.47;5042542;28;20048;-68
2022/03/17 07:11:56;;;;;;;127.13;52.92;;;;;;;6.81;76.00;101044.59;5043063;28;20465;-68
2022/03/17 07:14:22;;;;;;;149.57;56.88;;;;;;;6.78;76.44;101042.09;5043115;28;20129;-68
2022/03/17 07:16:47;;;;;;;135.30;52.97;;;;;;;6.77;76.31;101043.84;5039399;28;20328;-68
2022/03/17 07:19:12;;;;;;;146.20;54.08;;;;;;;6.78;76.50;101049.91;5042524;28;20431;-66
2022/03/17 07:21:39;;;;;;;150.13;55.72;;;;;;;6.81;76.48;101059.38;5042830;28;20068;-68
2022/03/17 07:24:06;;;;;;;133.30;53.53;;;;;;;6.82;76.16;101053.25;5041877;28;20083;-67
2022/03/17 07:26:31;;;;;;;129.82;54.65;;;;;;;6.86;76.52;101058.31;5042857;28;20475;-68
2022/03/17 07:28:57;;;;;;;133.13;52.35;;;;;;;6.87;76.54;101057.38;5038235;28;20051;-69
2022/03/17 07:31:24;;;;;;;229.57;55.92;;;;;;;6.93;75.26;101054.50;5042756;28;20467;-69
2022/03/17 07:33:49;;;;;;;164.23;55.13;;;;;;;7.00;75.42;101052.53;5041505;28;20576;-66
2022/03/17 07:36:15;;;;;;;184.23;54.45;;;;;;;7.02;75.07;101058.53;5040479;28;20048;-67
2022/03/17 07:38:40;;;;;;;142.73;53.95;;;;;;;7.05;74.87;101062.78;5039821;28;20041;-69
2022/03/17 07:41:06;;;;;;;143.55;54.50;;;;;;;7.09;74.40;101064.38;5041738;28;20403;-68
2022/03/17 07:43:31;;;;;;;128.27;52.42;;;;;;;7.12;74.24;101062.47;5043052;28;20025;-68
2022/03/17 07:45:56;;;;;;;156.00;51.15;;;;;;;7.19;73.88;101058.72;5041410;28;20041;-68
2022/03/17 07:48:22;;;;;;;140.77;53.40;;;;;;;7.31;73.49;101056.53;5042253;28;20179;-69
2022/03/17 07:50:47;;;;;;;154.82;57.22;;;;;;;7.36;73.43;101065.84;5041518;28;20413;-67
2022/03/17 07:53:12;;;;;;;146.93;56.80;;;;;;;7.45;73.72;101062.88;5038787;28;20422;-68
2022/03/17 07:55:38;;;;;;;183.25;55.88;;;;;;;7.56;73.21;101056.34;5042465;28;20037;-69
2022/03/17 07:58:04;;;;;;;152.95;53.45;;;;;;;7.66;72.68;101061.09;5042706;28;20044;-69
2022/03/17 08:00:30;;;;;;;148.07;54.40;;;;;;;7.73;71.98;101075.59;5040017;28;20142;-68
2022/03/17 08:02:55;;;;;;;151.13;55.55;;;;;;;7.74;71.98;101064.22;5032978;28;20041;-67
2022/03/17 08:05:21;;;;;;;189.13;56.85;;;;;;;7.81;71.51;101061.38;5042110;28;20041;-68
2022/03/17 08:07:46;;;;;;;144.07;51.78;;;;;;;7.84;71.22;101059.47;5040695;28;20922;-69
2022/03/17 08:10:13;;;;;;;141.63;53.15;;;;;;;7.95;71.40;101054.63;5040012;28;20047;-67
2022/03/17 08:12:39;;;;;;;156.55;55.97;;;;;;;7.97;71.48;101063.25;5042326;28;20056;-70
2022/03/17 08:15:05;;;;;;;115.20;49.95;;;;;;;8.07;70.87;101061.06;5041946;28;20187;-69
2022/03/17 08:17:30;;;;;;;123.38;51.47;;;;;;;8.15;70.38;101055.50;5041819;28;20041;-70
2022/03/17 08:19:56;;;;;;;125.95;51.70;;;;;;;8.22;70.58;101060.41;5040636;28;20036;-69
2022/03/17 08:22:22;;;;;;;125.15;50.42;;;;;;;8.25;70.59;101062.88;5042643;28;20063;-69
2022/03/17 08:24:47;;;;;;;139.48;52.70;;;;;;;8.30;70.17;101064.44;5039279;28;20020;-67
2022/03/17 08:27:12;;;;;;;129.40;52.28;;;;;;;8.40;69.67;101068.38;5042163;28;20697;-68
2022/03/17 08:29:41;;;;;;;132.23;49.05;;;;;;;8.44;69.60;101065.53;5040913;28;20041;-66
2022/03/17 08:32:07;;;;;;;131.02;55.20;;;;;;;8.53;69.66;101061.69;5041448;28;20032;-68
2022/03/17 08:34:33;;;;;;;132.93;53.80;;;;;;;8.61;69.51;101063.94;5041226;28;20017;-69
2022/03/17 08:36:59;;;;;;;124.28;51.67;;;;;;;8.66;69.20;101064.56;5039533;28;20025;-69
2022/03/17 08:39:25;;;;;;;155.02;52.38;;;;;;;8.68;69.34;101079.25;5040552;28;20048;-70
2022/03/17 08:41:51;;;;;;;133.02;53.70;;;;;;;8.77;68.95;101072.75;5041925;28;20434;-70
2022/03/17 08:44:17;;;;;;;136.05;52.28;;;;;;;8.86;68.34;101072.34;5040642;28;20677;-66
2022/03/17 08:49:26;;;;;;;138.65;51.25;;;;;;;8.90;67.95;101073.88;5040968;28;20035;-69
2022/03/17 08:51:55;;;;;;;137.40;50.55;;;;;;;8.96;67.79;101075.34;5042205;28;20025;-68
2022/03/17 08:54:24;;;;;;;128.45;51.15;;;;;;;9.03;67.63;101084.59;5040716;28;20090;-68
2022/03/17 08:56:59;;;;;;;120.78;50.95;;;;;;;9.12;67.67;101089.41;5040568;28;20060;-70
2022/03/17 08:59:30;;;;;;;125.68;55.20;;;;;;;9.13;67.08;101078.00;5038307;28;20059;-67
2022/03/17 09:01:56;;;;;;;144.30;57.30;;;;;;;9.24;66.92;101087.13;5041067;28;20906;-71
2022/03/17 09:04:22;;;;;;;130.38;52.75;;;;;;;9.27;67.13;101085.19;5039329;28;20052;-68
2022/03/17 09:06:47;;;;;;;132.18;53.58;;;;;;;9.34;66.51;101091.78;5041636;28;20043;-69
2022/03/17 09:09:12;;;;;;;136.02;53.45;;;;;;;9.37;66.74;101083.81;5037934;28;20060;-69
2022/03/17 09:14:07;;;;;;;125.47;52.47;;;;;;;9.48;66.10;101085.06;5037042;28;20060;-68
2022/03/17 09:16:33;;;;;;;127.68;55.05;;;;;;;9.54;65.72;101082.13;5041264;28;20019;-69
2022/03/17 09:18:58;;;;;;;131.70;54.08;;;;;;;9.61;65.64;101094.00;5041247;28;20024;-68
2022/03/17 09:21:25;;;;;;;120.80;50.58;;;;;;;9.60;64.66;101085.31;5042137;28;20045;-66
2022/03/17 09:23:51;;;;;;;123.60;52.92;;;;;;;9.57;64.49;101085.44;5041120;28;20068;-69
2022/03/17 09:26:16;;;;;;;127.63;52.22;;;;;;;9.59;64.72;101077.50;5039025;28;20538;-68
2022/03/17 09:28:43;;;;;;;141.23;52.60;;;;;;;9.64;65.06;101084.22;5038250;28;20359;-70
2022/03/17 09:31:09;;;;;;;137.57;52.38;;;;;;;9.67;64.92;101083.19;5040315;28;20403;-70
2022/03/17 09:33:35;;;;;;;116.28;49.55;;;;;;;9.75;64.88;101085.44;5040840;28;20025;-69
2022/03/17 09:36:01;;;;;;;122.43;51.67;;;;;;;9.84;65.05;101082.34;5041489;28;20083;-71
2022/03/17 09:38:26;;;;;;;132.80;53.67;;;;;;;9.88;64.04;101078.66;5040476;28;20137;-69
2022/03/17 09:40:51;;;;;;;124.43;51.40;;;;;;;9.93;64.30;101076.63;5041504;28;20502;-68
2022/03/17 09:43:21;;;;;;;120.13;52.17;;;;;;;9.92;64.51;101077.56;5041395;28;20040;-67
2022/03/17 09:45:50;;;;;;;121.47;52.63;;;;;;;10.00;64.97;101078.00;5040578;28;20172;-68
2022/03/17 09:48:17;;;;;;;119.78;53.58;;;;;;;10.04;65.14;101071.69;5040728;28;20029;-69
2022/03/17 09:50:45;;;;;;;124.28;53.88;;;;;;;10.11;65.03;101075.69;5039493;28;20037;-65
2022/03/17 09:53:10;;;;;;;131.43;55.53;;;;;;;10.15;64.68;101068.50;5040282;28;20120;-67
2022/03/17 09:55:36;;;;;;;146.90;55.10;;;;;;;10.23;64.70;101076.81;5041016;28;20104;-69
2022/03/17 09:58:06;;;;;;;129.15;55.13;;;;;;;10.37;64.57;101071.72;5019988;28;20104;-67
2022/03/17 10:03:28;;;;;;;137.05;54.63;;;;;;;10.58;64.29;101072.34;5041225;28;20040;-66
2022/03/17 10:05:55;;;;;;;129.48;55.63;;;;;;;10.68;63.89;101077.94;5042518;28;20141;-66
2022/03/17 10:08:23;;;;;;;128.88;55.72;;;;;;;10.77;63.46;101081.84;5041251;28;20052;-70
2022/03/17 10:10:54;;;;;;;142.75;57.22;;;;;;;10.86;62.65;101090.06;5043522;28;20061;-70
2022/03/17 10:13:23;;;;;;;122.65;53.20;;;;;;;10.92;62.58;101091.47;5043528;28;20037;-68
2022/03/17 10:16:07;;;;;;;133.93;57.42;;;;;;;11.12;61.81;101096.47;5044395;28;20624;-70
2022/03/17 10:18:37;;;;;;;134.82;55.95;;;;;;;11.15;61.30;101098.06;5039613;28;20047;-72
2022/03/17 10:21:10;;;;;;;151.40;63.05;;;;;;;11.42;61.09;101105.28;5043341;28;20037;-71
2022/03/17 10:23:50;;;;;;;133.65;56.47;;;;;;;11.60;60.51;101118.22;5044204;28;20025;-68
2022/03/17 10:26:46;;;;;;;134.45;53.33;;;;;;;11.79;60.53;101104.00;5044799;28;20094;-76
2022/03/17 10:29:22;;;;;;;128.98;54.97;;;;;;;11.81;59.69;101110.88;5041557;28;20033;-72
2022/03/17 10:32:06;;;;;;;137.45;54.95;;;;;;;11.93;59.65;101113.75;5044720;28;20033;-70
2022/03/17 10:34:35;;;;;;;126.63;56.30;;;;;;;12.01;58.38;101117.59;5044401;28;20866;-68
2022/03/17 10:37:16;;;;;;;141.73;57.15;;;;;;;12.05;59.06;101106.00;5045731;28;20032;-68
2022/03/17 10:39:44;;;;;;;120.93;54.42;;;;;;;12.15;58.50;101111.53;5042800;28;20040;-68
2022/03/17 10:42:16;;;;;;;131.35;58.80;;;;;;;12.19;57.96;101112.19;5044309;28;20029;-68
2022/03/17 10:44:47;;;;;;;142.20;57.42;;;;;;;12.19;57.07;101115.66;5043271;28;20044;-70
2022/03/17 10:47:12;;;;;;;133.57;55.60;;;;;;;12.29;57.03;101111.53;5043058;28;20090;-69
2022/03/17 10:49:38;;;;;;;184.65;59.78;;;;;;;12.42;57.48;101108.16;5042424;28;20320;-67
2022/03/17 10:52:03;;;;;;;129.80;58.72;;;;;;;12.47;57.59;101114.00;5045329;28;20017;-66
2022/03/17 10:54:29;;;;;;;150.27;59.10;;;;;;;12.53;57.45;101111.84;5043335;28;20033;-66
2022/03/17 10:57:02;;;;;;;142.73;60.83;;;;;;;12.69;56.87;101114.34;5044697;28;20131;-68
2022/03/17 10:59:43;;;;;;;129.07;55.75;;;;;;;12.84;56.65;101116.00;5041785;28;20052;-66
2022/03/17 11:02:11;;;;;;;138.25;58.50;;;;;;;12.91;56.33;101121.75;5043645;28;20402;-70
2022/03/17 11:04:41;;;;;;;147.23;60.38;;;;;;;13.07;54.52;101124.22;5043632;28;20505;-68
2022/03/17 11:07:13;;;;;;;139.70;64.35;;;;;;;13.00;54.06;101128.19;5040319;28;20112;-69
2022/03/17 11:09:43;;;;;;;160.70;60.03;;;;;;;13.02;54.51;101123.69;5041494;28;20041;-68
2022/03/17 11:12:11;;;;;;;134.40;59.28;;;;;;;13.11;54.07;101124.88;5044118;28;20082;-68
2022/03/17 11:14:46;;;;;;;160.93;66.18;;;;;;;13.14;54.93;101129.97;5042383;28;20080;-68
2022/03/17 11:17:16;;;;;;;157.65;63.40;;;;;;;13.27;55.16;101137.00;5042677;28;20021;-68
2022/03/17 11:19:43;;;;;;;141.25;60.08;;;;;;;13.45;54.48;101139.38;5040593;28;20558;-65
2022/03/17 11:22:15;;;;;;;130.32;60.58;;;;;;;13.50;53.64;101138.16;5043462;28;20130;-67
2022/03/17 11:24:40;;;;;;;174.15;63.65;;;;;;;13.41;53.63;101141.38;5043539;28;20055;-66
2022/03/17 11:27:13;;;;;;;139.80;59.85;;;;;;;13.38;53.76;101140.72;5042663;28;20033;-68